Time;durP1;ratioP1;P1;durP2;ratioP2;P2;SDS_P1;SDS_P2;PMS_P1;PMS_P2;Temp;Humidity;BMP_temperature;BMP_pressure;BME280_temperature;BME280_humidity;BME280_pressure;Samples;Min_cycle;Max_cycle;Signal;HPM_P1;HPM_P2
2024/01/31 00:01:07;;;;;;;15.07;4.05;;;;;;;7.68;100.00;103276.69;5071000;28;20063;-64
2024/01/31 00:03:55;;;;;;;12.43;3.80;;;;;;;7.68;100.00;103276.69;5082080;28;20052;-63
2024/01/31 00:06:51;;;;;;;13.88;3.90;;;;;;;7.67;100.00;103275.03;5087182;28;20175;-63
2024/01/31 00:09:40;;;;;;;11.30;3.50;;;;;;;7.66;100.00;103278.75;5072765;28;20183;-62
2024/01/31 00:12:28;;;;;;;10.52;3.38;;;;;;;7.65;100.00;103277.06;5073320;28;20059;-65
2024/01/31 00:15:16;;;;;;;13.10;3.67;;;;;;;7.63;100.00;103268.28;5084925;28;20453;-63
2024/01/31 00:18:05;;;;;;;12.95;3.53;;;;;;;7.63;100.00;103279.13;5088844;28;20040;-64
2024/01/31 00:20:53;;;;;;;14.55;3.92;;;;;;;7.61;100.00;103275.75;5075072;28;20083;-64
2024/01/31 00:23:41;;;;;;;10.77;3.20;;;;;;;7.61;100.00;103286.63;5074803;28;20072;-64
2024/01/31 00:26:29;;;;;;;14.30;3.58;;;;;;;7.61;100.00;103286.63;5098826;28;20067;-60
2024/01/31 00:29:17;;;;;;;14.20;3.78;;;;;;;7.61;100.00;103286.63;5079555;28;20068;-58
2024/01/31 00:32:05;;;;;;;11.43;3.42;;;;;;;7.61;100.00;103292.03;5075060;28;20048;-63
2024/01/31 00:34:53;;;;;;;15.00;3.60;;;;;;;7.60;100.00;103306.66;5072262;28;20059;-64
2024/01/31 00:37:41;;;;;;;8.75;3.22;;;;;;;7.56;100.00;103299.91;5057062;28;20041;-61
2024/01/31 00:40:29;;;;;;;15.38;3.55;;;;;;;7.53;100.00;103300.28;5038599;28;20128;-63
2024/01/31 00:43:17;;;;;;;9.48;2.72;;;;;;;7.54;100.00;103307.38;5052665;28;20056;-63
2024/01/31 00:46:05;;;;;;;7.57;2.80;;;;;;;7.55;100.00;103317.22;5084684;28;20048;-63
2024/01/31 00:48:53;;;;;;;7.88;2.92;;;;;;;7.53;100.00;103316.56;5062373;28;20489;-63
2024/01/31 00:51:45;;;;;;;9.18;2.70;;;;;;;7.53;100.00;103316.56;5068607;28;20049;-64
2024/01/31 00:54:33;;;;;;;9.30;2.63;;;;;;;7.55;100.00;103314.50;5056168;28;20041;-63
2024/01/31 00:57:21;;;;;;;8.77;2.85;;;;;;;7.55;100.00;103311.78;5051397;28;20179;-64
2024/01/31 01:00:11;;;;;;;16.02;3.28;;;;;;;7.53;100.00;103313.84;5061928;28;20044;-64
2024/01/31 01:02:59;;;;;;;7.72;2.42;;;;;;;7.55;100.00;103319.06;5071946;28;20052;-64
2024/01/31 01:05:47;;;;;;;10.27;2.38;;;;;;;7.55;100.00;103319.06;5070429;28;20080;-65
2024/01/31 01:08:35;;;;;;;9.32;2.90;;;;;;;7.53;100.00;103316.56;5071801;28;20049;-65
2024/01/31 01:11:23;;;;;;;9.52;2.70;;;;;;;7.52;100.00;103319.44;5056963;28;20067;-64
2024/01/31 01:14:11;;;;;;;9.45;2.83;;;;;;;7.50;100.00;103335.06;5055810;28;20057;-64
2024/01/31 01:16:59;;;;;;;8.57;2.78;;;;;;;7.49;100.00;103336.94;5055012;28;20083;-64
2024/01/31 01:19:47;;;;;;;8.25;2.50;;;;;;;7.50;100.00;103338.63;5057807;28;20070;-64
2024/01/31 01:22:35;;;;;;;10.65;3.03;;;;;;;7.50;100.00;103330.47;5071170;28;20497;-64
2024/01/31 01:25:24;;;;;;;11.02;3.13;;;;;;;7.50;100.00;103340.50;5070358;28;20412;-64
2024/01/31 01:28:12;;;;;;;9.73;3.20;;;;;;;7.48;100.00;103329.84;5069332;28;20048;-64
2024/01/31 01:31:00;;;;;;;8.05;2.83;;;;;;;7.46;100.00;103332.72;5081384;28;20498;-63
2024/01/31 01:33:48;;;;;;;9.93;3.10;;;;;;;7.47;100.00;103333.56;5094599;28;20051;-64
2024/01/31 01:36:36;;;;;;;11.45;2.90;;;;;;;7.46;100.00;103329.19;5079567;28;20044;-63
2024/01/31 01:39:24;;;;;;;9.85;3.28;;;;;;;7.45;100.00;103331.03;5060827;28;20079;-65
2024/01/31 01:42:15;;;;;;;10.52;2.83;;;;;;;7.46;100.00;103326.47;5075201;28;20502;-64
2024/01/31 01:45:03;;;;;;;11.13;2.47;;;;;;;7.44;100.00;103333.94;5080499;28;20048;-64
2024/01/31 01:47:52;;;;;;;6.57;2.35;;;;;;;7.44;100.00;103336.66;5079281;28;20036;-64
2024/01/31 01:50:41;;;;;;;8.85;2.60;;;;;;;7.44;100.00;103333.94;5040246;28;20037;-64
2024/01/31 01:53:30;;;;;;;6.70;2.33;;;;;;;7.44;100.00;103323.94;5040676;28;20178;-64
2024/01/31 01:56:19;;;;;;;8.80;2.70;;;;;;;7.45;100.00;103324.78;5040592;28;20111;-63
2024/01/31 01:59:07;;;;;;;7.90;2.72;;;;;;;7.46;100.00;103326.47;5059365;28;20041;-64
2024/01/31 02:01:55;;;;;;;11.05;2.35;;;;;;;7.45;100.00;103322.06;5061055;28;20420;-64
2024/01/31 02:04:43;;;;;;;7.57;2.30;;;;;;;7.45;100.00;103319.34;5075063;28;20519;-64
2024/01/31 02:07:31;;;;;;;7.63;2.30;;;;;;;7.45;100.00;103330.19;5072525;28;20041;-64
2024/01/31 02:10:19;;;;;;;7.10;2.33;;;;;;;7.46;100.00;103321.88;5061953;28;20048;-64
2024/01/31 02:13:07;;;;;;;11.10;2.95;;;;;;;7.47;100.00;103322.72;5059171;28;20055;-64
2024/01/31 02:15:56;;;;;;;10.15;2.53;;;;;;;7.49;100.00;103315.25;5073416;28;20497;-63
2024/01/31 02:18:45;;;;;;;8.07;2.40;;;;;;;7.47;100.00;103307.28;5047189;28;20048;-64
2024/01/31 02:21:35;;;;;;;7.40;2.40;;;;;;;7.48;100.00;103313.56;5066131;28;20462;-64
2024/01/31 02:24:23;;;;;;;7.57;2.70;;;;;;;7.47;100.00;103322.72;5072430;28;20123;-63
2024/01/31 02:27:11;;;;;;;9.18;2.88;;;;;;;7.45;100.00;103303.06;5074209;28;20129;-63
2024/01/31 02:29:59;;;;;;;10.60;2.78;;;;;;;7.45;100.00;103301.19;5072895;28;20496;-64
2024/01/31 02:32:47;;;;;;;8.10;2.60;;;;;;;7.45;100.00;103298.47;5072685;28;20564;-63
2024/01/31 02:35:35;;;;;;;8.18;2.28;;;;;;;7.47;100.00;103303.72;5073516;28;20615;-62
2024/01/31 02:38:23;;;;;;;7.20;2.63;;;;;;;7.48;100.00;103310.84;5070551;28;20130;-62
2024/01/31 02:41:11;;;;;;;9.52;2.72;;;;;;;7.47;100.00;103328.16;5075966;28;20040;-62
2024/01/31 02:44:00;;;;;;;6.03;2.40;;;;;;;7.44;100.00;103320.38;5073322;28;20166;-63
2024/01/31 02:46:47;;;;;;;9.88;2.72;;;;;;;7.43;100.00;103315.97;5058963;28;20040;-63
2024/01/31 02:49:35;;;;;;;11.57;3.33;;;;;;;7.44;100.00;103323.94;5059339;28;20089;-63
2024/01/31 02:52:24;;;;;;;8.82;2.55;;;;;;;7.44;100.00;103323.09;5070839;28;20078;-63
2024/01/31 02:55:12;;;;;;;9.93;3.00;;;;;;;7.42;100.00;103320.56;5073522;28;20045;-63
2024/01/31 02:58:00;;;;;;;9.88;2.80;;;;;;;7.42;100.00;103322.44;5074723;28;20056;-63
2024/01/31 03:00:48;;;;;;;6.40;2.35;;;;;;;7.40;100.00;103317.19;5070577;28;20060;-63
2024/01/31 03:03:36;;;;;;;9.48;2.70;;;;;;;7.39;100.00;103312.81;5059319;28;20174;-63
2024/01/31 03:06:24;;;;;;;7.47;2.42;;;;;;;7.40;100.00;103311.75;5053223;28;20064;-63
2024/01/31 03:09:12;;;;;;;7.72;2.47;;;;;;;7.39;100.00;103301.13;5061326;28;20123;-65
2024/01/31 03:12:00;;;;;;;7.28;2.70;;;;;;;7.38;100.00;103300.25;5083510;28;20131;-65
2024/01/31 03:14:48;;;;;;;8.02;2.78;;;;;;;7.38;100.00;103299.41;5058949;28;20051;-65
2024/01/31 03:17:36;;;;;;;10.32;3.00;;;;;;;7.38;100.00;103302.13;5045748;28;20051;-64
2024/01/31 03:20:25;;;;;;;7.38;2.42;;;;;;;7.39;100.00;103309.25;5059330;28;20054;-62
2024/01/31 03:23:13;;;;;;;6.82;2.55;;;;;;;7.40;100.00;103294.66;5051617;28;20053;-62
2024/01/31 03:26:01;;;;;;;5.55;2.30;;;;;;;7.39;100.00;103282.97;5051432;28;20045;-63
2024/01/31 03:28:49;;;;;;;7.53;2.38;;;;;;;7.39;100.00;103288.38;5045321;28;20052;-63
2024/01/31 03:31:37;;;;;;;9.30;2.60;;;;;;;7.38;100.00;103283.13;5085969;28;20055;-64
2024/01/31 03:34:25;;;;;;;9.38;2.85;;;;;;;7.41;100.00;103285.50;5073096;28;20049;-64
2024/01/31 03:37:13;;;;;;;5.45;2.20;;;;;;;7.40;100.00;103281.91;5073404;28;20135;-64
2024/01/31 03:40:04;;;;;;;9.70;2.80;;;;;;;7.42;100.00;103281.75;5061499;28;20047;-63
2024/01/31 03:42:52;;;;;;;9.73;2.63;;;;;;;7.41;100.00;103280.09;5060212;28;20059;-63
2024/01/31 03:45:40;;;;;;;9.20;2.45;;;;;;;7.42;100.00;103277.16;5053850;28;20051;-64
2024/01/31 03:48:28;;;;;;;9.13;2.55;;;;;;;7.44;100.00;103276.97;5052465;28;20041;-63
2024/01/31 03:51:23;;;;;;;9.38;2.70;;;;;;;7.45;100.00;103275.94;5027664;28;20437;-64
2024/01/31 03:54:12;;;;;;;9.15;2.30;;;;;;;7.44;100.00;103274.28;5068798;28;20049;-65
2024/01/31 03:57:00;;;;;;;7.85;2.55;;;;;;;7.44;100.00;103272.41;5072864;28;20416;-64
2024/01/31 03:59:48;;;;;;;8.55;2.42;;;;;;;7.46;100.00;103272.22;5074043;28;20497;-64
2024/01/31 04:02:38;;;;;;;7.82;2.60;;;;;;;7.46;100.00;103272.22;5058738;28;20049;-63
2024/01/31 04:05:26;;;;;;;5.97;2.47;;;;;;;7.46;100.00;103270.34;5042668;28;20129;-65
2024/01/31 04:08:14;;;;;;;9.50;2.78;;;;;;;7.45;100.00;103270.53;5074052;28;20387;-64
2024/01/31 04:11:02;;;;;;;6.93;2.53;;;;;;;7.42;100.00;103271.72;5071622;28;20147;-63
2024/01/31 04:13:50;;;;;;;8.27;2.70;;;;;;;7.41;100.00;103263.81;5084356;28;20480;-62
2024/01/31 04:16:38;;;;;;;9.40;3.10;;;;;;;7.40;100.00;103256.69;5070928;28;20044;-63
2024/01/31 04:19:26;;;;;;;8.93;3.00;;;;;;;7.41;100.00;103258.38;5057721;28;20045;-64
2024/01/31 04:22:16;;;;;;;8.70;2.72;;;;;;;7.42;100.00;103260.88;5072151;28;20420;-62
2024/01/31 04:25:08;;;;;;;6.68;2.90;;;;;;;7.42;100.00;103262.75;5074943;28;20568;-64
2024/01/31 04:27:56;;;;;;;9.07;2.60;;;;;;;7.42;100.00;103260.06;5073663;28;20052;-63
2024/01/31 04:30:44;;;;;;;8.13;2.70;;;;;;;7.41;100.00;103263.81;5056748;28;20527;-64
2024/01/31 04:33:32;;;;;;;6.30;2.45;;;;;;;7.44;100.00;103255.28;5077411;28;20049;-63
2024/01/31 04:36:20;;;;;;;7.82;2.80;;;;;;;7.41;100.00;103263.81;5070460;28;20052;-63
2024/01/31 04:39:08;;;;;;;6.68;2.35;;;;;;;7.40;100.00;103251.25;5089094;28;20055;-59
2024/01/31 04:41:56;;;;;;;9.32;2.90;;;;;;;7.39;100.00;103260.44;5065430;28;20055;-63
2024/01/31 04:44:45;;;;;;;7.55;2.60;;;;;;;7.38;100.00;103258.72;5062510;28;20135;-62
2024/01/31 04:47:33;;;;;;;8.75;2.67;;;;;;;7.39;100.00;103263.16;5091195;28;20071;-62
2024/01/31 04:50:21;;;;;;;7.50;2.50;;;;;;;7.38;100.00;103259.56;5091338;28;20083;-60
2024/01/31 04:53:09;;;;;;;8.45;2.83;;;;;;;7.35;100.00;103259.94;5078026;28;20423;-63
2024/01/31 04:55:57;;;;;;;6.70;2.72;;;;;;;7.33;100.00;103261.16;5069375;28;20052;-63
2024/01/31 04:58:45;;;;;;;7.97;3.00;;;;;;;7.35;100.00;103259.13;5056437;28;20054;-64
2024/01/31 05:01:34;;;;;;;9.73;2.90;;;;;;;7.35;100.00;103256.41;5057665;28;20056;-64
2024/01/31 05:04:22;;;;;;;8.95;2.92;;;;;;;7.36;100.00;103255.34;5080508;28;20118;-64
2024/01/31 05:07:10;;;;;;;8.32;2.83;;;;;;;7.35;100.00;103256.41;5059471;28;20504;-64
2024/01/31 05:09:58;;;;;;;8.65;2.72;;;;;;;7.36;100.00;103253.50;5062374;28;20049;-65
2024/01/31 05:12:46;;;;;;;7.60;2.60;;;;;;;7.35;100.00;103250.97;5076048;28;20056;-63
2024/01/31 05:15:34;;;;;;;9.38;3.25;;;;;;;7.35;100.00;103259.13;5062058;28;20171;-64
2024/01/31 05:18:22;;;;;;;8.35;2.90;;;;;;;7.33;100.00;103263.88;5077999;28;20127;-63
2024/01/31 05:21:11;;;;;;;7.45;2.63;;;;;;;7.33;100.00;103250.31;5064542;28;20060;-66
2024/01/31 05:23:59;;;;;;;6.38;2.47;;;;;;;7.34;100.00;103258.28;5066607;28;21247;-64
2024/01/31 05:26:48;;;;;;;11.45;3.20;;;;;;;7.33;100.00;103255.75;5076385;28;20551;-64
2024/01/31 05:29:37;;;;;;;6.18;2.50;;;;;;;7.32;100.00;103244.06;5064099;28;20122;-64
2024/01/31 05:32:25;;;;;;;11.07;2.80;;;;;;;7.31;100.00;103255.94;5077886;28;20118;-65
2024/01/31 05:35:14;;;;;;;9.98;3.50;;;;;;;7.31;100.00;103255.06;5078841;28;20041;-66
2024/01/31 05:38:03;;;;;;;9.13;3.08;;;;;;;7.31;100.00;103260.50;5077824;28;20091;-64
2024/01/31 05:40:50;;;;;;;9.93;3.10;;;;;;;7.31;100.00;103253.22;5078978;28;20048;-64
2024/01/31 05:43:39;;;;;;;9.85;2.88;;;;;;;7.31;100.00;103255.06;5064852;28;20055;-62
2024/01/31 05:46:27;;;;;;;8.90;3.40;;;;;;;7.29;100.00;103260.72;5078338;28;20134;-63
2024/01/31 05:49:15;;;;;;;9.20;3.47;;;;;;;7.29;100.00;103255.28;5076063;28;20055;-63
2024/01/31 05:52:03;;;;;;;7.45;3.35;;;;;;;7.27;100.00;103256.50;5079363;28;20131;-64
2024/01/31 05:54:52;;;;;;;8.27;2.85;;;;;;;7.28;100.00;103253.59;5085450;28;20075;-65
2024/01/31 05:57:39;;;;;;;8.13;3.40;;;;;;;7.28;100.00;103250.88;5092514;28;20052;-65
2024/01/31 06:00:27;;;;;;;8.23;3.13;;;;;;;7.31;100.00;103255.06;5078395;28;20044;-65
2024/01/31 06:03:15;;;;;;;7.28;3.25;;;;;;;7.29;100.00;103247.16;5077628;28;20131;-64
2024/01/31 06:06:04;;;;;;;12.18;3.95;;;;;;;7.24;100.00;103258.56;5048486;28;20056;-65
2024/01/31 06:08:52;;;;;;;12.52;3.85;;;;;;;7.18;100.00;103251.16;5070029;28;20086;-65
2024/01/31 06:11:40;;;;;;;11.77;3.90;;;;;;;7.19;100.00;103260.13;5054916;28;20068;-65
2024/01/31 06:14:29;;;;;;;10.88;4.22;;;;;;;7.15;100.00;103256.94;5056097;28;20068;-65
2024/01/31 06:17:18;;;;;;;7.70;3.35;;;;;;;7.18;100.00;103253.84;5045796;28;20048;-65
2024/01/31 06:20:06;;;;;;;8.15;4.00;;;;;;;7.21;100.00;103253.47;5039260;28;20437;-65
2024/01/31 06:22:54;;;;;;;11.55;4.60;;;;;;;7.23;100.00;103246.00;5038922;28;20045;-65
2024/01/31 06:25:42;;;;;;;12.77;4.38;;;;;;;7.24;100.00;103238.75;5021689;28;20045;-64
2024/01/31 06:28:30;;;;;;;13.38;4.55;;;;;;;7.24;100.00;103230.59;5035601;28;20062;-64
2024/01/31 06:31:26;;;;;;;10.25;4.20;;;;;;;7.25;100.00;103232.28;5035205;28;20053;-64
2024/01/31 06:34:17;;;;;;;10.65;4.93;;;;;;;7.27;100.00;103223.97;5040219;28;20178;-63
2024/01/31 06:37:05;;;;;;;10.77;4.82;;;;;;;7.28;100.00;103225.63;5052914;28;20040;-63
2024/01/31 06:39:56;;;;;;;13.13;5.88;;;;;;;7.26;100.00;103217.66;5054264;28;20122;-64
2024/01/31 06:42:45;;;;;;;13.05;5.50;;;;;;;7.27;100.00;103215.81;5026766;28;20033;-65
2024/01/31 06:45:33;;;;;;;10.85;4.80;;;;;;;7.27;100.00;103210.41;5040029;28;20447;-63
2024/01/31 06:48:22;;;;;;;14.07;5.20;;;;;;;7.24;100.00;103204.31;5054677;28;20174;-64
2024/01/31 06:51:11;;;;;;;16.67;6.20;;;;;;;7.20;100.00;103197.56;5059623;28;20055;-63
2024/01/31 06:53:59;;;;;;;15.73;7.22;;;;;;;7.14;100.00;103198.31;5040265;28;20041;-64
2024/01/31 06:56:47;;;;;;;14.15;6.18;;;;;;;7.09;100.00;103203.47;5053991;28;20049;-64
2024/01/31 06:59:35;;;;;;;18.35;6.90;;;;;;;7.09;100.00;103205.31;5039466;28;20116;-65
2024/01/31 07:02:23;;;;;;;17.15;7.57;;;;;;;7.08;100.00;103209.91;5026122;28;20063;-65
2024/01/31 07:05:11;;;;;;;18.20;8.27;;;;;;;7.07;100.00;103213.66;5039470;28;20061;-65
2024/01/31 07:07:59;;;;;;;17.48;7.60;;;;;;;7.08;100.00;103234.31;5031573;28;20045;-64
2024/01/31 07:10:47;;;;;;;18.48;7.78;;;;;;;7.11;100.00;103247.50;5033195;28;20037;-63
2024/01/31 07:13:36;;;;;;;20.73;8.10;;;;;;;7.14;100.00;103262.53;4369622;28;10001048;-64
2024/01/31 07:16:24;;;;;;;18.15;8.43;;;;;;;7.15;100.00;103281.34;5069096;28;20060;-64
2024/01/31 07:19:12;;;;;;;19.45;9.10;;;;;;;7.15;100.00;103292.19;5055534;28;20056;-65
2024/01/31 07:22:00;;;;;;;17.42;8.75;;;;;;;7.14;100.00;103300.50;5068961;28;20049;-65
2024/01/31 07:24:48;;;;;;;19.38;9.63;;;;;;;7.12;100.00;103300.69;5056662;28;20088;-65
2024/01/31 07:27:40;;;;;;;17.45;9.38;;;;;;;7.13;100.00;103299.66;5068094;28;20040;-66
2024/01/31 07:30:28;;;;;;;19.33;9.70;;;;;;;7.13;100.00;103299.66;5055837;28;20124;-65
2024/01/31 07:33:16;;;;;;;18.90;9.40;;;;;;;7.12;100.00;103308.84;5067396;28;20044;-65
2024/01/31 07:36:05;;;;;;;18.35;8.77;;;;;;;7.14;100.00;103309.47;5053909;28;20519;-65
2024/01/31 07:38:53;;;;;;;17.27;9.05;;;;;;;7.16;100.00;103307.41;5070136;28;20045;-65
2024/01/31 07:41:43;;;;;;;16.75;9.52;;;;;;;7.17;100.00;103309.13;5070725;28;20445;-65
2024/01/31 07:44:31;;;;;;;20.50;9.88;;;;;;;7.17;100.00;103311.84;5054002;28;20452;-64
2024/01/31 07:47:20;;;;;;;21.48;10.65;;;;;;;7.16;100.00;103315.56;5068323;28;20071;-65
2024/01/31 07:50:08;;;;;;;20.92;11.60;;;;;;;7.17;100.00;103319.97;5041342;28;20102;-66
2024/01/31 07:52:56;;;;;;;21.42;10.80;;;;;;;7.16;100.00;103320.97;5069403;28;20045;-64
2024/01/31 07:55:44;;;;;;;20.58;10.30;;;;;;;7.18;100.00;103323.50;5066453;28;20225;-63
2024/01/31 07:58:32;;;;;;;22.50;11.00;;;;;;;7.18;100.00;103320.81;5048989;28;20131;-63
2024/01/31 08:01:21;;;;;;;24.83;11.85;;;;;;;7.18;100.00;103313.50;5059985;28;20505;-64
2024/01/31 08:04:09;;;;;;;20.20;12.55;;;;;;;7.10;100.00;103321.72;5068994;28;20045;-64
2024/01/31 08:06:57;;;;;;;19.95;13.00;;;;;;;7.09;100.00;103316.47;5072654;28;20052;-65
2024/01/31 08:09:45;;;;;;;22.38;13.13;;;;;;;7.07;100.00;103316.69;5072345;28;20091;-64
2024/01/31 08:12:33;;;;;;;23.35;13.80;;;;;;;7.07;100.00;103316.69;5074581;28;20055;-65
2024/01/31 08:15:21;;;;;;;18.50;12.27;;;;;;;7.10;100.00;103305.47;5078206;28;20126;-65
2024/01/31 08:18:09;;;;;;;24.08;12.75;;;;;;;7.14;100.00;103295.91;5093108;28;20402;-64
2024/01/31 08:20:57;;;;;;;24.02;13.20;;;;;;;7.16;100.00;103293.88;5091381;28;20114;-64
2024/01/31 08:23:45;;;;;;;22.92;12.93;;;;;;;7.18;100.00;103302.66;5071940;28;20360;-65
2024/01/31 08:26:33;;;;;;;25.38;14.80;;;;;;;7.18;100.00;103302.66;5064723;28;20047;-64
2024/01/31 08:29:22;;;;;;;25.35;12.90;;;;;;;7.20;100.00;103302.50;5092909;28;20626;-64
2024/01/31 08:32:14;;;;;;;23.85;13.32;;;;;;;7.20;100.00;103297.91;5069709;28;20037;-66
2024/01/31 08:35:03;;;;;;;20.33;12.77;;;;;;;7.23;100.00;103289.38;5057322;28;20134;-64
2024/01/31 08:37:54;;;;;;;19.58;12.93;;;;;;;7.24;100.00;103291.09;5062955;28;20048;-64
2024/01/31 08:40:42;;;;;;;22.88;13.30;;;;;;;7.25;100.00;103287.34;5090920;28;20051;-64
2024/01/31 08:43:30;;;;;;;26.55;14.52;;;;;;;7.23;100.00;103292.09;5073657;28;20098;-65
2024/01/31 08:46:18;;;;;;;26.73;12.77;;;;;;;7.25;100.00;103281.91;5072894;28;20091;-65
2024/01/31 08:49:06;;;;;;;19.90;11.73;;;;;;;7.28;100.00;103279.88;5049012;28;20127;-63
2024/01/31 08:51:54;;;;;;;20.85;12.70;;;;;;;7.28;100.00;103274.44;5058383;28;20187;-64
2024/01/31 08:54:42;;;;;;;22.77;13.40;;;;;;;7.28;100.00;103274.44;5073006;28;20385;-67
2024/01/31 08:57:30;;;;;;;20.90;11.77;;;;;;;7.29;100.00;103276.13;5084649;28;20052;-63
2024/01/31 09:00:19;;;;;;;21.42;11.50;;;;;;;7.35;100.00;103259.13;5083194;28;20044;-64
2024/01/31 09:03:07;;;;;;;21.30;10.27;;;;;;;7.47;100.00;103263.03;5051557;28;20405;-61
2024/01/31 09:05:56;;;;;;;20.13;11.40;;;;;;;7.48;100.00;103256.59;5098404;28;20059;-62
2024/01/31 09:08:46;;;;;;;22.75;12.00;;;;;;;7.45;100.00;103252.38;5109988;28;20048;-64
2024/01/31 09:11:34;;;;;;;24.55;15.25;;;;;;;7.41;100.00;103242.94;5095348;28;20071;-63
2024/01/31 09:14:22;;;;;;;24.88;13.93;;;;;;;7.39;100.00;103249.59;5078095;28;20511;-65
2024/01/31 09:17:10;;;;;;;22.42;13.20;;;;;;;7.37;100.00;103241.63;5070951;28;20390;-64
2024/01/31 09:19:58;;;;;;;23.10;13.93;;;;;;;7.37;100.00;103236.19;5072540;28;20051;-63
2024/01/31 09:22:46;;;;;;;24.98;14.43;;;;;;;7.38;100.00;103234.31;5037407;28;20045;-65
2024/01/31 09:25:34;;;;;;;30.30;16.05;;;;;;;7.36;100.00;103228.25;5046442;28;20068;-63
2024/01/31 09:28:22;;;;;;;23.80;14.85;;;;;;;7.37;100.00;103219.94;5050942;28;20142;-66
2024/01/31 09:31:11;;;;;;;22.33;12.52;;;;;;;7.39;100.00;103217.88;5050209;28;20069;-65
2024/01/31 09:33:59;;;;;;;27.10;15.90;;;;;;;7.40;100.00;103213.28;5059675;28;20091;-65
2024/01/31 09:36:48;;;;;;;25.13;15.63;;;;;;;7.41;100.00;103210.41;5087754;28;20044;-66
2024/01/31 09:39:36;;;;;;;29.80;16.48;;;;;;;7.49;100.00;103209.44;5056056;28;20037;-65
2024/01/31 09:42:24;;;;;;;27.13;16.00;;;;;;;7.46;100.00;103207.13;5058133;28;20040;-66
2024/01/31 09:45:12;;;;;;;22.83;12.10;;;;;;;7.54;100.00;103201.59;5052101;28;20072;-64
2024/01/31 09:48:01;;;;;;;22.02;13.45;;;;;;;7.54;100.00;103198.03;5055788;28;20094;-63
2024/01/31 09:50:49;;;;;;;24.98;14.07;;;;;;;7.55;100.00;103194.28;5060886;28;20040;-64
2024/01/31 09:53:37;;;;;;;26.27;12.95;;;;;;;7.57;100.00;103187.63;5054227;28;20347;-62
2024/01/31 09:56:31;;;;;;;27.45;17.38;;;;;;;7.56;100.00;103196.81;5062673;28;20044;-64
2024/01/31 09:59:19;;;;;;;24.92;16.10;;;;;;;7.60;100.00;103203.56;5077150;28;20036;-64
2024/01/31 10:02:08;;;;;;;24.08;10.25;;;;;;;7.81;100.00;103199.19;5053814;28;20123;-65
2024/01/31 10:04:57;;;;;;;26.10;9.23;;;;;;;7.94;100.00;103204.78;5076221;28;20458;-63
2024/01/31 10:07:45;;;;;;;26.98;16.05;;;;;;;7.89;100.00;103199.94;5059781;28;20062;-64
2024/01/31 10:10:33;;;;;;;22.73;13.45;;;;;;;7.85;100.00;103211.34;5061220;28;20506;-64
2024/01/31 10:13:22;;;;;;;25.13;14.05;;;;;;;7.94;100.00;103210.22;5074234;28;20048;-65
2024/01/31 10:16:10;;;;;;;27.77;18.05;;;;;;;7.82;100.00;103217.19;5060873;28;20045;-64
2024/01/31 10:18:59;;;;;;;29.45;17.73;;;;;;;7.73;100.00;103218.31;5074632;28;20161;-64
2024/01/31 10:21:47;;;;;;;23.08;14.25;;;;;;;7.76;100.00;103213.31;5047773;28;20556;-63
2024/01/31 10:24:35;;;;;;;22.88;13.93;;;;;;;7.71;100.00;103214.94;5074877;28;20459;-64
2024/01/31 10:27:23;;;;;;;27.05;19.50;;;;;;;7.65;100.00;103221.97;5025633;28;20453;-63
2024/01/31 10:30:12;;;;;;;30.73;21.02;;;;;;;7.60;100.00;103224.38;5032697;28;20045;-64
2024/01/31 10:33:00;;;;;;;25.17;18.00;;;;;;;7.60;100.00;103218.97;5055400;28;20129;-66
2024/01/31 10:35:48;;;;;;;24.95;19.70;;;;;;;7.60;100.00;103218.97;5061259;28;20041;-65
2024/01/31 10:38:57;;;;;;;32.97;22.20;;;;;;;7.53;100.00;103218.91;5050337;28;20037;-64
2024/01/31 10:41:47;;;;;;;35.60;23.02;;;;;;;7.50;100.00;103223.84;5074886;28;20497;-64
2024/01/31 10:44:37;;;;;;;33.97;23.33;;;;;;;7.48;100.00;103229.47;5073453;28;20549;-66
2024/01/31 10:47:25;;;;;;;31.35;22.88;;;;;;;7.46;100.00;103224.22;5061124;28;20424;-64
2024/01/31 10:50:13;;;;;;;30.90;22.60;;;;;;;7.46;100.00;103226.09;5072557;28;20040;-66
2024/01/31 10:53:03;;;;;;;32.72;23.60;;;;;;;7.47;100.00;103219.63;5060595;28;20044;-64
2024/01/31 10:55:52;;;;;;;29.35;22.98;;;;;;;7.48;100.00;103215.91;5034640;28;20037;-66
2024/01/31 10:58:41;;;;;;;30.88;23.15;;;;;;;7.51;100.00;103203.84;5045224;28;20044;-66
2024/01/31 11:01:30;;;;;;;32.03;23.20;;;;;;;7.49;100.00;103209.44;5071855;28;20124;-65
2024/01/31 11:04:18;;;;;;;34.50;23.80;;;;;;;7.50;100.00;103196.72;5047538;28;20078;-63
2024/01/31 11:07:13;;;;;;;29.20;22.67;;;;;;;7.51;100.00;103190.28;5074890;28;20110;-65
2024/01/31 11:10:02;;;;;;;33.60;22.93;;;;;;;7.52;100.00;103184.66;5060027;28;20040;-64
2024/01/31 11:13:06;;;;;;;53.33;41.35;;;;;;;7.55;100.00;103184.28;5076648;28;20118;-64
2024/01/31 11:15:54;;;;;;;28.65;21.10;;;;;;;7.59;100.00;103177.44;5055058;28;20124;-62
2024/01/31 11:18:42;;;;;;;28.20;18.10;;;;;;;7.60;100.00;103172.84;5028756;28;20056;-65
2024/01/31 11:21:40;;;;;;;21.27;15.32;;;;;;;7.64;100.00;103166.84;5046143;28;20505;-62
2024/01/31 11:24:30;;;;;;;23.05;13.65;;;;;;;7.68;100.00;103162.72;5044792;28;20052;-64
2024/01/31 11:27:19;;;;;;;20.38;13.77;;;;;;;7.72;100.00;103151.47;5074676;28;20084;-64
2024/01/31 11:30:07;;;;;;;27.38;15.88;;;;;;;7.69;100.00;103150.81;5060451;28;20123;-63
2024/01/31 11:33:01;;;;;;;19.65;12.95;;;;;;;7.71;100.00;103144.38;5059970;28;20126;-63
2024/01/31 11:35:49;;;;;;;21.45;14.27;;;;;;;7.68;100.00;103135.59;5070686;28;20051;-64
2024/01/31 11:38:38;;;;;;;18.35;12.68;;;;;;;7.68;100.00;103130.16;5075246;28;20047;-64
2024/01/31 11:41:26;;;;;;;21.10;13.95;;;;;;;7.77;100.00;103120.03;5056808;28;20432;-63
2024/01/31 11:44:14;;;;;;;24.45;13.25;;;;;;;7.75;100.00;103102.28;5053220;28;20428;-63
2024/01/31 11:47:02;;;;;;;15.88;11.52;;;;;;;7.72;100.00;103097.22;5056377;28;20048;-63
2024/01/31 11:49:50;;;;;;;20.75;12.50;;;;;;;7.73;100.00;103093.47;5072623;28;20133;-64
2024/01/31 11:52:39;;;;;;;17.77;12.57;;;;;;;7.76;100.00;103084.94;5052513;28;20045;-65
2024/01/31 11:55:29;;;;;;;16.38;11.75;;;;;;;7.73;100.00;103072.59;5051477;28;20127;-64
2024/01/31 11:58:18;;;;;;;17.38;11.98;;;;;;;7.74;100.00;103071.56;5029005;28;20040;-63
2024/01/31 12:01:06;;;;;;;16.52;12.13;;;;;;;7.76;100.00;103071.38;5043744;28;20111;-65
2024/01/31 12:03:54;;;;;;;20.00;12.57;;;;;;;7.75;100.00;103053.44;5059037;28;20045;-65
2024/01/31 12:06:41;;;;;;;26.73;15.52;;;;;;;7.82;100.00;103054.34;5074889;28;20131;-64
2024/01/31 12:09:31;;;;;;;23.85;14.85;;;;;;;7.87;100.00;103046.44;5092748;28;20044;-65
2024/01/31 12:12:20;;;;;;;23.55;14.35;;;;;;;7.94;100.00;103047.34;5037213;28;20056;-63
2024/01/31 12:15:15;;;;;;;23.30;13.63;;;;;;;7.91;100.00;103047.72;5055619;28;20386;-64
2024/01/31 12:18:04;;;;;;;;;;;;;;;7.73;100.00;103039.22;5048528;28;20495;-63
2024/01/31 12:21:04;;;;;;;15.88;11.07;;;;;;;7.64;100.00;103038.50;5056639;28;20224;-66
2024/01/31 12:23:52;;;;;;;15.77;10.05;;;;;;;7.58;100.00;103040.13;5044948;28;20492;-63
2024/01/31 12:26:40;;;;;;;13.52;9.30;;;;;;;7.57;100.00;103032.16;5074406;28;20125;-64
2024/01/31 12:29:28;;;;;;;19.15;10.15;;;;;;;7.65;100.00;103032.88;5081420;28;20406;-65
2024/01/31 12:32:17;;;;;;;22.30;11.63;;;;;;;7.76;100.00;103026.06;5056136;28;20052;-64
2024/01/31 12:35:05;;;;;;;22.95;11.73;;;;;;;7.79;100.00;103022.13;5073549;28;20183;-63
2024/01/31 12:37:53;;;;;;;18.23;11.18;;;;;;;7.81;100.00;103020.06;5045344;28;20040;-64
2024/01/31 12:40:41;;;;;;;17.52;10.38;;;;;;;7.75;100.00;103013.56;5058138;28;20044;-64
2024/01/31 12:43:30;;;;;;;16.20;9.32;;;;;;;7.71;100.00;103004.13;5072755;28;20634;-64
2024/01/31 12:46:18;;;;;;;15.48;10.52;;;;;;;7.75;100.00;103004.59;5057799;28;20055;-64
2024/01/31 12:49:06;;;;;;;17.45;10.05;;;;;;;7.72;100.00;102994.09;5052625;28;20051;-64
2024/01/31 12:51:54;;;;;;;16.45;9.25;;;;;;;7.69;100.00;103000.75;5051738;28;20417;-65
2024/01/31 12:54:42;;;;;;;16.45;9.63;;;;;;;7.72;100.00;103007.66;5053191;28;20493;-64